Etusivu
METAR-TAF:

METAR-TAF

Lentoasemat :

Bardufoss, Norja

Leveyspiiri: 69-04N, Pituuspiiri: 018-32E, korkeus merenpinnasta: 7 m

Tämänhetkinen sää

Tämä raportti tehtiin 40 minuuttia sitten, kello 16.50 UTC
Tuuli 1 kn eri suunnista
Lämpötila 5°C
Kosteus 81%
Ilmanpaine 1020 hPa
Näkyvyys 10 km tai enemmän
Muutamia pilviä 2500 ft:n korkeudessa
Pilvistä 3500 ft:n korkeudessa

METAR: ENDU 191650Z VRB01KT 9999 FEW025 OVC035 05/02 Q1020 NOSIG RMK WIND 1100FT 13005KT WIND 2200FT 16011KT

Aika: 19:30 (17:30 UTC)

Sääennuste

Ennuste voimassa 19. päivästä klo 12 UTC - 20. päivään klo 12 UTC
Tuuli 5 kn eri suunnista
Näkyvyys 10 km tai enemmän
Muutamia pilviä 1500 ft:n korkeudessa
Hajonneita pilviä 3000 ft:n korkeudessa
Ajoittain
20. päivästä klo 00 UTC - 20. päivään klo 06 UTC
Tuuli 10 kn etelästä/lounaasta
Hajonneita pilviä 1400 ft:n korkeudessa
sadetta

TAF: ENDU 1912/2012 VRB05KT 9999 FEW015 BKN030 TEMPO 2000/2006 21010KT RA BKN014

Säähavainnot ja -ennusteet yli 4000 lentoasemalta (METAR- ja TAF-raportit).

Käytössä olevat sääasemat on merkitty karttaan keltaisilla ja punaisilla pisteillä.

Aseta hiiri pisteen päälle nähdäksesi sääaseman nimen.

Klikkaa sitten nähdäksesi säähavainnot ja -ennusteet.

Kartan vaihtaminen: klikkaa mustalla rastilla varustettuja vihreitä pisteitä, niin voit zoomata sisään; viivalla varustettua vihreää pistettä, niin voit zoomata ulos tai vihreitä nuolia, niin pääset viereisille kartoille.


METAR-TAF: